Time;durP1;ratioP1;P1;durP2;ratioP2;P2;SDS_P1;SDS_P2;PMS_P1;PMS_P2;Temp;Humidity;BMP_temperature;BMP_pressure;BME280_temperature;BME280_humidity;BME280_pressure;Samples;Min_cycle;Max_cycle;Signal;HPM_P1;HPM_P2
2020/06/09 00:02:09;;;;;;;26.8;22.45;;;;;;;11.69;86.9502;94844.98;;;;
2020/06/09 00:03:18;;;;;;;26.8;22.45;;;;;;;11.69;86.9502;94844.98;;;;
2020/06/09 00:04:24;;;;;;;26.8;22.45;;;;;;;11.69;86.9502;94844.98;;;;
2020/06/09 00:07:34;;;;;;;26.75;23.55;;;;;;;11.72;87.68066;94844.61;;;;
2020/06/09 00:08:58;;;;;;;26.75;23.55;;;;;;;11.72;87.68066;94844.61;;;;
2020/06/09 00:10:10;;;;;;;26.75;23.55;;;;;;;11.72;87.68066;94844.61;;;;
2020/06/09 00:11:33;;;;;;;26.75;23.55;;;;;;;11.72;87.68066;94844.61;;;;
2020/06/09 00:12:40;;;;;;;26.75;23.55;;;;;;;11.72;87.68066;94844.61;;;;
2020/06/09 00:13:47;;;;;;;26.75;23.55;;;;;;;11.72;87.68066;94844.61;;;;
2020/06/09 00:20:05;;;;;;;26.7;23.85;;;;;;;11.7;88.22266;94825.11;;;;
2020/06/09 00:22:24;;;;;;;26.7;23.85;;;;;;;11.7;88.22266;94825.11;;;;
2020/06/09 00:28:35;;;;;;;28.7;25.6;;;;;;;11.76;89.1543;94809.23;;;;
2020/06/09 00:34:58;;;;;;;28.7;25.6;;;;;;;11.76;89.1543;94809.23;;;;
2020/06/09 00:36:13;;;;;;;28.7;25.6;;;;;;;11.76;89.1543;94809.23;;;;
2020/06/09 00:37:55;;;;;;;30.7;26.3;;;;;;;11.74;89.38574;94807.2;;;;
2020/06/09 00:44:49;;;;;;;30.7;26.3;;;;;;;11.74;89.38574;94807.2;;;;
2020/06/09 00:51:10;;;;;;;31.35;26.95;;;;;;;11.77;90.19238;94803.56;;;;
2020/06/09 00:52:19;;;;;;;31.35;26.95;;;;;;;11.77;90.19238;94803.56;;;;
2020/06/09 00:53:29;;;;;;;31.35;26.95;;;;;;;11.77;90.19238;94803.56;;;;
2020/06/09 00:55:09;;;;;;;31.35;26.95;;;;;;;11.77;90.19238;94803.56;;;;
2020/06/09 00:56:18;;;;;;;31.35;26.95;;;;;;;11.77;90.19238;94803.56;;;;
2020/06/09 00:57:27;;;;;;;31.35;26.95;;;;;;;11.77;90.19238;94803.56;;;;
2020/06/09 00:58:35;;;;;;;31;27.75;;;;;;;11.76;90.69238;94798.3;;;;
2020/06/09 01:04:55;;;;;;;31;27.75;;;;;;;11.76;90.69238;94798.3;;;;
2020/06/09 01:07:17;;;;;;;31;27.75;;;;;;;11.76;90.69238;94798.3;;;;
2020/06/09 01:08:37;;;;;;;31;27.75;;;;;;;11.76;90.69238;94798.3;;;;
2020/06/09 01:09:45;;;;;;;33.2;29.65;;;;;;;11.84;91.28418;94792.53;;;;
2020/06/09 01:10:54;;;;;;;33.2;29.65;;;;;;;11.84;91.28418;94792.53;;;;
2020/06/09 01:17:22;;;;;;;33.2;29.65;;;;;;;11.84;91.28418;94792.53;;;;
2020/06/09 01:18:32;;;;;;;33.2;29.65;;;;;;;11.84;91.28418;94792.53;;;;
2020/06/09 01:19:41;;;;;;;34.25;30.55;;;;;;;11.79;91.78711;94793.31;;;;
2020/06/09 01:20:49;;;;;;;34.25;30.55;;;;;;;11.79;91.78711;94793.31;;;;
2020/06/09 01:39:31;;;;;;;34.40001;30.75;;;;;;;11.8;92.20703;94781.82;;;;
2020/06/09 01:45:55;;;;;;;34.5;30.75;;;;;;;11.78;92.52344;94782.23;;;;
2020/06/09 01:47:36;;;;;;;34.5;30.75;;;;;;;11.78;92.52344;94782.23;;;;
2020/06/09 01:49:49;;;;;;;34.5;30.75;;;;;;;11.78;92.52344;94782.23;;;;
2020/06/09 01:51:03;;;;;;;34.5;30.75;;;;;;;11.78;92.52344;94782.23;;;;
2020/06/09 01:52:12;;;;;;;36.7;32.7;;;;;;;11.82;93.04102;94770.73;;;;
2020/06/09 01:53:23;;;;;;;36.7;32.7;;;;;;;11.82;93.04102;94770.73;;;;
2020/06/09 01:54:36;;;;;;;36.7;32.7;;;;;;;11.82;93.04102;94770.73;;;;
2020/06/09 01:56:46;;;;;;;36.7;32.7;;;;;;;11.82;93.04102;94770.73;;;;
2020/06/09 01:57:57;;;;;;;36.7;32.7;;;;;;;11.82;93.04102;94770.73;;;;
2020/06/09 01:59:49;;;;;;;36.7;32.7;;;;;;;11.82;93.04102;94770.73;;;;
2020/06/09 02:06:25;;;;;;;37.2;32.25001;;;;;;;11.8;93.32715;94763.83;;;;
2020/06/09 02:12:44;;;;;;;35.7;31.7;;;;;;;11.85;93.81738;94763.9;;;;
2020/06/09 02:21:09;;;;;;;35.7;31.7;;;;;;;11.85;93.81738;94763.9;;;;
2020/06/09 02:37:56;;;;;;;34.85;31.15;;;;;;;11.85;94.55371;94757.14;;;;
2020/06/09 02:39:13;;;;;;;34.85;31.15;;;;;;;11.85;94.55371;94757.14;;;;
2020/06/09 02:46:42;;;;;;;34.45;30.79999;;;;;;;11.8;95.22461;94749.51;;;;
2020/06/09 02:48:13;;;;;;;34.45;30.79999;;;;;;;11.8;95.22461;94749.51;;;;
2020/06/09 02:49:42;;;;;;;34.45;30.79999;;;;;;;11.8;95.22461;94749.51;;;;
2020/06/09 02:50:44;;;;;;;34.45;30.79999;;;;;;;11.8;95.22461;94749.51;;;;
2020/06/09 02:51:44;;;;;;;34.45;30.79999;;;;;;;11.8;95.22461;94749.51;;;;
2020/06/09 02:52:45;;;;;;;34.45;30.79999;;;;;;;11.8;95.22461;94749.51;;;;
2020/06/09 02:53:46;;;;;;;34.45;30.79999;;;;;;;11.8;95.22461;94749.51;;;;
2020/06/09 02:54:46;;;;;;;34.45;30.79999;;;;;;;11.8;95.22461;94749.51;;;;
2020/06/09 02:55:46;;;;;;;31.1;27.9;;;;;;;11.82;95.48633;94755.33;;;;
2020/06/09 02:56:47;;;;;;;31.1;27.9;;;;;;;11.82;95.48633;94755.33;;;;
2020/06/09 02:57:47;;;;;;;31.1;27.9;;;;;;;11.82;95.48633;94755.33;;;;
2020/06/09 02:58:48;;;;;;;31.1;27.9;;;;;;;11.82;95.48633;94755.33;;;;
2020/06/09 02:59:48;;;;;;;31.1;27.9;;;;;;;11.82;95.48633;94755.33;;;;
2020/06/09 03:00:49;;;;;;;31.1;27.9;;;;;;;11.82;95.48633;94755.33;;;;
2020/06/09 03:01:49;;;;;;;31.1;27.9;;;;;;;11.82;95.48633;94755.33;;;;
2020/06/09 03:02:50;;;;;;;31.1;27.9;;;;;;;11.82;95.48633;94755.33;;;;
2020/06/09 03:03:50;;;;;;;31.1;27.9;;;;;;;11.82;95.48633;94755.33;;;;
2020/06/09 03:04:50;;;;;;;31.1;27.9;;;;;;;11.82;95.48633;94755.33;;;;
2020/06/09 03:05:51;;;;;;;33.8;30.15;;;;;;;11.74;96.02246;94758.11;;;;
2020/06/09 03:06:51;;;;;;;33.8;30.15;;;;;;;11.74;96.02246;94758.11;;;;
2020/06/09 03:07:52;;;;;;;33.8;30.15;;;;;;;11.74;96.02246;94758.11;;;;
2020/06/09 03:08:54;;;;;;;33.8;30.15;;;;;;;11.74;96.02246;94758.11;;;;
2020/06/09 03:09:56;;;;;;;33.8;30.15;;;;;;;11.74;96.02246;94758.11;;;;
2020/06/09 03:11:02;;;;;;;33.8;30.15;;;;;;;11.74;96.02246;94758.11;;;;
2020/06/09 03:17:18;;;;;;;30.45;27.2;;;;;;;11.74;96.55469;94758.11;;;;
2020/06/09 03:18:19;;;;;;;30.45;27.2;;;;;;;11.74;96.55469;94758.11;;;;
2020/06/09 03:19:21;;;;;;;30.45;27.2;;;;;;;11.74;96.55469;94758.11;;;;
2020/06/09 03:20:22;;;;;;;30.45;27.2;;;;;;;11.74;96.55469;94758.11;;;;
2020/06/09 03:21:22;;;;;;;30.45;27.2;;;;;;;11.74;96.55469;94758.11;;;;
2020/06/09 03:22:22;;;;;;;30.45;27.2;;;;;;;11.74;96.55469;94758.11;;;;
2020/06/09 03:23:23;;;;;;;30.45;27.2;;;;;;;11.74;96.55469;94758.11;;;;
2020/06/09 03:24:23;;;;;;;30.45;27.2;;;;;;;11.74;96.55469;94758.11;;;;
2020/06/09 03:25:24;;;;;;;30.45;27.2;;;;;;;11.74;96.55469;94758.11;;;;
2020/06/09 03:26:24;;;;;;;30.45;27.2;;;;;;;11.74;96.55469;94758.11;;;;
2020/06/09 03:27:28;;;;;;;29.9;26.8;;;;;;;11.7;96.94922;94753.45;;;;
2020/06/09 03:28:29;;;;;;;29.9;26.8;;;;;;;11.7;96.94922;94753.45;;;;
2020/06/09 03:29:29;;;;;;;29.9;26.8;;;;;;;11.7;96.94922;94753.45;;;;
2020/06/09 03:30:31;;;;;;;29.9;26.8;;;;;;;11.7;96.94922;94753.45;;;;
2020/06/09 03:31:32;;;;;;;29.9;26.8;;;;;;;11.7;96.94922;94753.45;;;;
2020/06/09 03:32:32;;;;;;;29.9;26.8;;;;;;;11.7;96.94922;94753.45;;;;
2020/06/09 03:33:33;;;;;;;29.9;26.8;;;;;;;11.7;96.94922;94753.45;;;;
2020/06/09 03:34:33;;;;;;;29.9;26.8;;;;;;;11.7;96.94922;94753.45;;;;
2020/06/09 03:35:34;;;;;;;29.9;26.8;;;;;;;11.7;96.94922;94753.45;;;;
2020/06/09 03:36:34;;;;;;;29.9;26.8;;;;;;;11.7;96.94922;94753.45;;;;
2020/06/09 03:37:35;;;;;;;27.65;24.7;;;;;;;11.73;97.41406;94759.72;;;;
2020/06/09 03:38:35;;;;;;;27.65;24.7;;;;;;;11.73;97.41406;94759.72;;;;
2020/06/09 03:39:35;;;;;;;27.65;24.7;;;;;;;11.73;97.41406;94759.72;;;;
2020/06/09 03:40:36;;;;;;;27.65;24.7;;;;;;;11.73;97.41406;94759.72;;;;
2020/06/09 03:41:39;;;;;;;27.65;24.7;;;;;;;11.73;97.41406;94759.72;;;;
2020/06/09 03:42:40;;;;;;;27.65;24.7;;;;;;;11.73;97.41406;94759.72;;;;
2020/06/09 03:43:40;;;;;;;27.65;24.7;;;;;;;11.73;97.41406;94759.72;;;;
2020/06/09 03:44:41;;;;;;;27.65;24.7;;;;;;;11.73;97.41406;94759.72;;;;
2020/06/09 03:45:41;;;;;;;27.65;24.7;;;;;;;11.73;97.41406;94759.72;;;;
2020/06/09 03:46:45;;;;;;;27.65;24.7;;;;;;;11.73;97.41406;94759.72;;;;
2020/06/09 03:47:45;;;;;;;27.65;24.7;;;;;;;11.73;97.41406;94759.72;;;;
2020/06/09 03:48:46;;;;;;;29.5;26.35;;;;;;;11.71;97.48633;94757.24;;;;
2020/06/09 03:49:46;;;;;;;29.5;26.35;;;;;;;11.71;97.48633;94757.24;;;;
2020/06/09 03:50:47;;;;;;;29.5;26.35;;;;;;;11.71;97.48633;94757.24;;;;
2020/06/09 03:51:49;;;;;;;29.5;26.35;;;;;;;11.71;97.48633;94757.24;;;;
2020/06/09 03:52:49;;;;;;;29.5;26.35;;;;;;;11.71;97.48633;94757.24;;;;
2020/06/09 03:53:50;;;;;;;29.5;26.35;;;;;;;11.71;97.48633;94757.24;;;;
2020/06/09 03:54:51;;;;;;;29.5;26.35;;;;;;;11.71;97.48633;94757.24;;;;
2020/06/09 03:55:51;;;;;;;29.5;26.35;;;;;;;11.71;97.48633;94757.24;;;;
2020/06/09 03:56:53;;;;;;;29.5;26.35;;;;;;;11.71;97.48633;94757.24;;;;
2020/06/09 03:57:53;;;;;;;29.5;26.35;;;;;;;11.71;97.48633;94757.24;;;;
2020/06/09 03:58:55;;;;;;;28.65;25.6;;;;;;;11.74;98.02539;94751.76;;;;
2020/06/09 03:59:55;;;;;;;28.65;25.6;;;;;;;11.74;98.02539;94751.76;;;;
2020/06/09 04:01:06;;;;;;;28.65;25.6;;;;;;;11.74;98.02539;94751.76;;;;
2020/06/09 04:02:06;;;;;;;28.65;25.6;;;;;;;11.74;98.02539;94751.76;;;;
2020/06/09 04:03:08;;;;;;;28.65;25.6;;;;;;;11.74;98.02539;94751.76;;;;
2020/06/09 04:04:22;;;;;;;28.65;25.6;;;;;;;11.74;98.02539;94751.76;;;;
2020/06/09 04:05:23;;;;;;;28.65;25.6;;;;;;;11.74;98.02539;94751.76;;;;
2020/06/09 04:06:30;;;;;;;28.65;25.6;;;;;;;11.74;98.02539;94751.76;;;;
2020/06/09 04:07:32;;;;;;;28.65;25.6;;;;;;;11.74;98.02539;94751.76;;;;
2020/06/09 04:08:32;;;;;;;28.65;25.6;;;;;;;11.74;98.02539;94751.76;;;;
2020/06/09 04:09:34;;;;;;;28.05;25.1;;;;;;;11.7;98.28125;94752.09;;;;
2020/06/09 04:10:36;;;;;;;28.05;25.1;;;;;;;11.7;98.28125;94752.09;;;;
2020/06/09 04:11:38;;;;;;;28.05;25.1;;;;;;;11.7;98.28125;94752.09;;;;
2020/06/09 04:12:44;;;;;;;28.05;25.1;;;;;;;11.7;98.28125;94752.09;;;;
2020/06/09 04:13:46;;;;;;;28.05;25.1;;;;;;;11.7;98.28125;94752.09;;;;
2020/06/09 04:14:49;;;;;;;28.05;25.1;;;;;;;11.7;98.28125;94752.09;;;;
2020/06/09 04:16:00;;;;;;;28.05;25.1;;;;;;;11.7;98.28125;94752.09;;;;
2020/06/09 04:17:08;;;;;;;28.05;25.1;;;;;;;11.7;98.28125;94752.09;;;;
2020/06/09 04:18:09;;;;;;;28.05;25.1;;;;;;;11.7;98.28125;94752.09;;;;
2020/06/09 04:19:12;;;;;;;28.05;25.1;;;;;;;11.7;98.28125;94752.09;;;;
2020/06/09 04:20:13;;;;;;;26.9;24.05;;;;;;;11.73;98.56641;94748.75;;;;
2020/06/09 04:21:14;;;;;;;26.9;24.05;;;;;;;11.73;98.56641;94748.75;;;;
2020/06/09 04:22:18;;;;;;;26.9;24.05;;;;;;;11.73;98.56641;94748.75;;;;
2020/06/09 04:23:18;;;;;;;26.9;24.05;;;;;;;11.73;98.56641;94748.75;;;;
2020/06/09 04:24:19;;;;;;;26.9;24.05;;;;;;;11.73;98.56641;94748.75;;;;
2020/06/09 04:25:19;;;;;;;26.9;24.05;;;;;;;11.73;98.56641;94748.75;;;;
2020/06/09 04:26:20;;;;;;;26.9;24.05;;;;;;;11.73;98.56641;94748.75;;;;
2020/06/09 04:27:21;;;;;;;26.9;24.05;;;;;;;11.73;98.56641;94748.75;;;;
2020/06/09 04:28:21;;;;;;;26.9;24.05;;;;;;;11.73;98.56641;94748.75;;;;
2020/06/09 04:29:22;;;;;;;26.9;24.05;;;;;;;11.73;98.56641;94748.75;;;;
2020/06/09 04:30:22;;;;;;;25.5;22.85;;;;;;;11.71;98.87109;94742.38;;;;
2020/06/09 04:31:23;;;;;;;25.5;22.85;;;;;;;11.71;98.87109;94742.38;;;;
2020/06/09 04:32:24;;;;;;;25.5;22.85;;;;;;;11.71;98.87109;94742.38;;;;
2020/06/09 04:33:26;;;;;;;25.5;22.85;;;;;;;11.71;98.87109;94742.38;;;;
2020/06/09 04:35:32;;;;;;;25.5;22.85;;;;;;;11.71;98.87109;94742.38;;;;
2020/06/09 04:37:38;;;;;;;25.5;22.85;;;;;;;11.71;98.87109;94742.38;;;;
2020/06/09 04:38:38;;;;;;;25.5;22.85;;;;;;;11.71;98.87109;94742.38;;;;
2020/06/09 04:39:39;;;;;;;25.5;22.85;;;;;;;11.71;98.87109;94742.38;;;;
2020/06/09 04:40:40;;;;;;;25.5;22.85;;;;;;;11.71;98.87109;94742.38;;;;
2020/06/09 04:41:40;;;;;;;22.6;20.4;;;;;;;11.81;99.35059;94744.78;;;;
2020/06/09 04:42:41;;;;;;;22.6;20.4;;;;;;;11.81;99.35059;94744.78;;;;
2020/06/09 04:43:41;;;;;;;22.6;20.4;;;;;;;11.81;99.35059;94744.78;;;;
2020/06/09 04:44:42;;;;;;;22.6;20.4;;;;;;;11.81;99.35059;94744.78;;;;
2020/06/09 04:45:43;;;;;;;22.6;20.4;;;;;;;11.81;99.35059;94744.78;;;;
2020/06/09 04:46:43;;;;;;;22.6;20.4;;;;;;;11.81;99.35059;94744.78;;;;
2020/06/09 04:47:44;;;;;;;22.6;20.4;;;;;;;11.81;99.35059;94744.78;;;;
2020/06/09 04:48:44;;;;;;;22.6;20.4;;;;;;;11.81;99.35059;94744.78;;;;
2020/06/09 04:49:45;;;;;;;22.6;20.4;;;;;;;11.81;99.35059;94744.78;;;;
2020/06/09 04:50:45;;;;;;;22.6;20.4;;;;;;;11.81;99.35059;94744.78;;;;
2020/06/09 04:51:46;;;;;;;23.2;20.85;;;;;;;11.82;99.61035;94741.82;;;;
2020/06/09 04:52:46;;;;;;;23.2;20.85;;;;;;;11.82;99.61035;94741.82;;;;
2020/06/09 04:53:46;;;;;;;23.2;20.85;;;;;;;11.82;99.61035;94741.82;;;;
2020/06/09 04:54:48;;;;;;;23.2;20.85;;;;;;;11.82;99.61035;94741.82;;;;
2020/06/09 04:55:48;;;;;;;23.2;20.85;;;;;;;11.82;99.61035;94741.82;;;;
2020/06/09 04:56:48;;;;;;;23.2;20.85;;;;;;;11.82;99.61035;94741.82;;;;
2020/06/09 04:57:49;;;;;;;23.2;20.85;;;;;;;11.82;99.61035;94741.82;;;;
2020/06/09 04:58:49;;;;;;;23.2;20.85;;;;;;;11.82;99.61035;94741.82;;;;
2020/06/09 04:59:50;;;;;;;23.2;20.85;;;;;;;11.82;99.61035;94741.82;;;;
2020/06/09 05:00:51;;;;;;;23.2;20.85;;;;;;;11.82;99.61035;94741.82;;;;
2020/06/09 05:01:52;;;;;;;23.2;20.85;;;;;;;11.82;99.61035;94741.82;;;;
2020/06/09 05:02:52;;;;;;;22.4;20.1;;;;;;;11.86;100;94746.58;;;;
2020/06/09 05:03:52;;;;;;;22.4;20.1;;;;;;;11.86;100;94746.58;;;;
2020/06/09 05:04:53;;;;;;;22.4;20.1;;;;;;;11.86;100;94746.58;;;;
2020/06/09 05:05:53;;;;;;;22.4;20.1;;;;;;;11.86;100;94746.58;;;;
2020/06/09 05:06:54;;;;;;;22.4;20.1;;;;;;;11.86;100;94746.58;;;;
2020/06/09 05:07:54;;;;;;;22.4;20.1;;;;;;;11.86;100;94746.58;;;;
2020/06/09 05:08:54;;;;;;;22.4;20.1;;;;;;;11.86;100;94746.58;;;;
2020/06/09 05:09:55;;;;;;;22.4;20.1;;;;;;;11.86;100;94746.58;;;;
2020/06/09 05:10:55;;;;;;;22.4;20.1;;;;;;;11.86;100;94746.58;;;;
2020/06/09 05:11:56;;;;;;;22.4;20.1;;;;;;;11.86;100;94746.58;;;;
2020/06/09 05:12:56;;;;;;;22.35;20.2;;;;;;;11.8;100;94759.77;;;;
2020/06/09 05:13:57;;;;;;;22.35;20.2;;;;;;;11.8;100;94759.77;;;;
2020/06/09 05:14:57;;;;;;;22.35;20.2;;;;;;;11.8;100;94759.77;;;;
2020/06/09 05:15:58;;;;;;;22.35;20.2;;;;;;;11.8;100;94759.77;;;;
2020/06/09 05:16:58;;;;;;;22.35;20.2;;;;;;;11.8;100;94759.77;;;;
2020/06/09 05:17:59;;;;;;;22.35;20.2;;;;;;;11.8;100;94759.77;;;;
2020/06/09 05:18:59;;;;;;;22.35;20.2;;;;;;;11.8;100;94759.77;;;;
2020/06/09 05:20:00;;;;;;;22.35;20.2;;;;;;;11.8;100;94759.77;;;;
2020/06/09 05:21:00;;;;;;;22.35;20.2;;;;;;;11.8;100;94759.77;;;;
2020/06/09 05:22:01;;;;;;;22.35;20.2;;;;;;;11.8;100;94759.77;;;;
2020/06/09 05:23:02;;;;;;;22.35;20.2;;;;;;;11.8;100;94759.77;;;;
2020/06/09 05:24:03;;;;;;;23.3;20.95;;;;;;;11.8;100;94765.59;;;;
2020/06/09 05:25:04;;;;;;;23.3;20.95;;;;;;;11.8;100;94765.59;;;;
2020/06/09 05:26:05;;;;;;;23.3;20.95;;;;;;;11.8;100;94765.59;;;;
2020/06/09 05:27:06;;;;;;;23.3;20.95;;;;;;;11.8;100;94765.59;;;;
2020/06/09 05:28:07;;;;;;;23.3;20.95;;;;;;;11.8;100;94765.59;;;;
2020/06/09 05:29:08;;;;;;;23.3;20.95;;;;;;;11.8;100;94765.59;;;;
2020/06/09 05:30:11;;;;;;;23.3;20.95;;;;;;;11.8;100;94765.59;;;;
2020/06/09 05:31:12;;;;;;;23.3;20.95;;;;;;;11.8;100;94765.59;;;;
2020/06/09 05:32:12;;;;;;;23.3;20.95;;;;;;;11.8;100;94765.59;;;;
2020/06/09 05:33:13;;;;;;;23.3;20.95;;;;;;;11.8;100;94765.59;;;;
2020/06/09 05:34:13;;;;;;;22.95;20.65;;;;;;;11.79;100;94762.62;;;;
2020/06/09 05:35:14;;;;;;;22.95;20.65;;;;;;;11.79;100;94762.62;;;;
2020/06/09 05:36:14;;;;;;;22.95;20.65;;;;;;;11.79;100;94762.62;;;;
2020/06/09 05:37:15;;;;;;;22.95;20.65;;;;;;;11.79;100;94762.62;;;;
2020/06/09 05:38:15;;;;;;;22.95;20.65;;;;;;;11.79;100;94762.62;;;;
2020/06/09 05:39:16;;;;;;;22.95;20.65;;;;;;;11.79;100;94762.62;;;;
2020/06/09 05:40:16;;;;;;;22.95;20.65;;;;;;;11.79;100;94762.62;;;;
2020/06/09 05:41:17;;;;;;;22.95;20.65;;;;;;;11.79;100;94762.62;;;;
2020/06/09 05:42:17;;;;;;;22.95;20.65;;;;;;;11.79;100;94762.62;;;;
2020/06/09 05:43:18;;;;;;;22.95;20.65;;;;;;;11.79;100;94762.62;;;;
2020/06/09 05:44:19;;;;;;;22.95;20.65;;;;;;;11.79;100;94762.62;;;;
2020/06/09 05:45:19;;;;;;;23.65;21.1;;;;;;;11.85;100;94766.19;;;;
2020/06/09 05:46:20;;;;;;;23.65;21.1;;;;;;;11.85;100;94766.19;;;;
2020/06/09 05:47:20;;;;;;;23.65;21.1;;;;;;;11.85;100;94766.19;;;;
2020/06/09 05:48:20;;;;;;;23.65;21.1;;;;;;;11.85;100;94766.19;;;;
2020/06/09 05:49:21;;;;;;;23.65;21.1;;;;;;;11.85;100;94766.19;;;;
2020/06/09 05:50:23;;;;;;;23.65;21.1;;;;;;;11.85;100;94766.19;;;;
2020/06/09 05:51:24;;;;;;;23.65;21.1;;;;;;;11.85;100;94766.19;;;;
2020/06/09 05:52:24;;;;;;;23.65;21.1;;;;;;;11.85;100;94766.19;;;;
2020/06/09 05:53:25;;;;;;;23.65;21.1;;;;;;;11.85;100;94766.19;;;;
2020/06/09 05:54:26;;;;;;;23.65;21.1;;;;;;;11.85;100;94766.19;;;;
2020/06/09 05:55:27;;;;;;;21.3;19.1;;;;;;;11.86;100;94759.69;;;;
2020/06/09 05:56:27;;;;;;;21.3;19.1;;;;;;;11.86;100;94759.69;;;;
2020/06/09 05:57:28;;;;;;;21.3;19.1;;;;;;;11.86;100;94759.69;;;;
2020/06/09 05:58:28;;;;;;;21.3;19.1;;;;;;;11.86;100;94759.69;;;;
2020/06/09 05:59:29;;;;;;;21.3;19.1;;;;;;;11.86;100;94759.69;;;;
2020/06/09 06:00:29;;;;;;;21.3;19.1;;;;;;;11.86;100;94759.69;;;;
2020/06/09 06:01:30;;;;;;;21.3;19.1;;;;;;;11.86;100;94759.69;;;;
2020/06/09 06:02:30;;;;;;;21.3;19.1;;;;;;;11.86;100;94759.69;;;;
2020/06/09 06:03:31;;;;;;;21.3;19.1;;;;;;;11.86;100;94759.69;;;;
2020/06/09 06:04:32;;;;;;;21.3;19.1;;;;;;;11.86;100;94759.69;;;;
2020/06/09 06:05:32;;;;;;;21.3;19.1;;;;;;;11.86;100;94759.69;;;;
2020/06/09 06:06:32;;;;;;;23.95;21.5;;;;;;;11.93;100;94770.59;;;;
2020/06/09 06:07:33;;;;;;;23.95;21.5;;;;;;;11.93;100;94770.59;;;;
2020/06/09 06:08:33;;;;;;;23.95;21.5;;;;;;;11.93;100;94770.59;;;;
2020/06/09 06:09:34;;;;;;;23.95;21.5;;;;;;;11.93;100;94770.59;;;;
2020/06/09 06:10:34;;;;;;;23.95;21.5;;;;;;;11.93;100;94770.59;;;;
2020/06/09 06:11:35;;;;;;;23.95;21.5;;;;;;;11.93;100;94770.59;;;;
2020/06/09 06:12:36;;;;;;;23.95;21.5;;;;;;;11.93;100;94770.59;;;;
2020/06/09 06:13:36;;;;;;;23.95;21.5;;;;;;;11.93;100;94770.59;;;;
2020/06/09 06:14:37;;;;;;;23.95;21.5;;;;;;;11.93;100;94770.59;;;;
2020/06/09 06:15:38;;;;;;;23.95;21.5;;;;;;;11.93;100;94770.59;;;;
2020/06/09 06:16:41;;;;;;;22.6;20.3;;;;;;;11.93;100;94778.7;;;;
2020/06/09 06:17:46;;;;;;;22.6;20.3;;;;;;;11.93;100;94778.7;;;;
2020/06/09 06:18:48;;;;;;;22.6;20.3;;;;;;;11.93;100;94778.7;;;;
2020/06/09 06:20:06;;;;;;;22.6;20.3;;;;;;;11.93;100;94778.7;;;;
2020/06/09 06:21:07;;;;;;;22.6;20.3;;;;;;;11.93;100;94778.7;;;;
2020/06/09 06:22:07;;;;;;;22.6;20.3;;;;;;;11.93;100;94778.7;;;;
2020/06/09 06:23:08;;;;;;;22.6;20.3;;;;;;;11.93;100;94778.7;;;;
2020/06/09 06:24:09;;;;;;;22.6;20.3;;;;;;;11.93;100;94778.7;;;;
2020/06/09 06:25:09;;;;;;;22.6;20.3;;;;;;;11.93;100;94778.7;;;;
2020/06/09 06:26:13;;;;;;;22.6;20.3;;;;;;;11.93;100;94778.7;;;;
2020/06/09 06:27:14;;;;;;;21.4;19.35;;;;;;;12.02;100;94771.34;;;;
2020/06/09 06:28:14;;;;;;;21.4;19.35;;;;;;;12.02;100;94771.34;;;;
2020/06/09 06:29:14;;;;;;;21.4;19.35;;;;;;;12.02;100;94771.34;;;;
2020/06/09 06:30:15;;;;;;;21.4;19.35;;;;;;;12.02;100;94771.34;;;;
2020/06/09 06:31:19;;;;;;;21.4;19.35;;;;;;;12.02;100;94771.34;;;;
2020/06/09 06:32:20;;;;;;;21.4;19.35;;;;;;;12.02;100;94771.34;;;;
2020/06/09 06:33:20;;;;;;;21.4;19.35;;;;;;;12.02;100;94771.34;;;;
2020/06/09 06:34:21;;;;;;;21.4;19.35;;;;;;;12.02;100;94771.34;;;;
2020/06/09 06:35:21;;;;;;;21.4;19.35;;;;;;;12.02;100;94771.34;;;;
2020/06/09 06:36:22;;;;;;;21.4;19.35;;;;;;;12.02;100;94771.34;;;;
2020/06/09 06:37:23;;;;;;;21.4;19.35;;;;;;;12.02;100;94771.34;;;;
2020/06/09 06:38:23;;;;;;;25.4;22.75;;;;;;;12.06;100;94782.36;;;;
2020/06/09 06:39:23;;;;;;;25.4;22.75;;;;;;;12.06;100;94782.36;;;;
2020/06/09 06:40:24;;;;;;;25.4;22.75;;;;;;;12.06;100;94782.36;;;;
2020/06/09 06:41:25;;;;;;;25.4;22.75;;;;;;;12.06;100;94782.36;;;;
2020/06/09 06:42:25;;;;;;;25.4;22.75;;;;;;;12.06;100;94782.36;;;;
2020/06/09 06:43:25;;;;;;;25.4;22.75;;;;;;;12.06;100;94782.36;;;;
2020/06/09 06:44:26;;;;;;;25.4;22.75;;;;;;;12.06;100;94782.36;;;;
2020/06/09 06:45:26;;;;;;;25.4;22.75;;;;;;;12.06;100;94782.36;;;;
2020/06/09 06:46:27;;;;;;;25.4;22.75;;;;;;;12.06;100;94782.36;;;;
2020/06/09 06:47:27;;;;;;;25.4;22.75;;;;;;;12.06;100;94782.36;;;;
2020/06/09 06:48:27;;;;;;;26.05;23.45;;;;;;;12.13;100;94783.07;;;;
2020/06/09 06:49:28;;;;;;;26.05;23.45;;;;;;;12.13;100;94783.07;;;;
2020/06/09 06:50:28;;;;;;;26.05;23.45;;;;;;;12.13;100;94783.07;;;;
2020/06/09 06:51:29;;;;;;;26.05;23.45;;;;;;;12.13;100;94783.07;;;;
2020/06/09 06:52:29;;;;;;;26.05;23.45;;;;;;;12.13;100;94783.07;;;;
2020/06/09 06:53:29;;;;;;;26.05;23.45;;;;;;;12.13;100;94783.07;;;;
2020/06/09 06:54:30;;;;;;;26.05;23.45;;;;;;;12.13;100;94783.07;;;;
2020/06/09 06:55:30;;;;;;;26.05;23.45;;;;;;;12.13;100;94783.07;;;;
2020/06/09 06:56:31;;;;;;;26.05;23.45;;;;;;;12.13;100;94783.07;;;;
2020/06/09 06:57:31;;;;;;;26.05;23.45;;;;;;;12.13;100;94783.07;;;;
2020/06/09 06:58:32;;;;;;;26.05;23.45;;;;;;;12.13;100;94783.07;;;;
2020/06/09 06:59:32;;;;;;;26.1;23.5;;;;;;;12.15;100;94785.4;;;;
2020/06/09 07:00:33;;;;;;;26.1;23.5;;;;;;;12.15;100;94785.4;;;;
2020/06/09 07:01:33;;;;;;;26.1;23.5;;;;;;;12.15;100;94785.4;;;;
2020/06/09 07:02:34;;;;;;;26.1;23.5;;;;;;;12.15;100;94785.4;;;;
2020/06/09 07:03:34;;;;;;;26.1;23.5;;;;;;;12.15;100;94785.4;;;;
2020/06/09 07:04:35;;;;;;;26.1;23.5;;;;;;;12.15;100;94785.4;;;;
2020/06/09 07:05:35;;;;;;;26.1;23.5;;;;;;;12.15;100;94785.4;;;;
2020/06/09 07:06:35;;;;;;;26.1;23.5;;;;;;;12.15;100;94785.4;;;;
2020/06/09 07:07:36;;;;;;;26.1;23.5;;;;;;;12.15;100;94785.4;;;;
2020/06/09 07:08:37;;;;;;;26.1;23.5;;;;;;;12.15;100;94785.4;;;;
2020/06/09 07:09:37;;;;;;;27.2;24.35;;;;;;;12.25;100;94791.3;;;;
2020/06/09 07:10:44;;;;;;;27.2;24.35;;;;;;;12.25;100;94791.3;;;;
2020/06/09 07:11:49;;;;;;;27.2;24.35;;;;;;;12.25;100;94791.3;;;;
2020/06/09 07:12:51;;;;;;;27.2;24.35;;;;;;;12.25;100;94791.3;;;;
2020/06/09 07:13:51;;;;;;;27.2;24.35;;;;;;;12.25;100;94791.3;;;;
2020/06/09 07:14:52;;;;;;;27.2;24.35;;;;;;;12.25;100;94791.3;;;;
2020/06/09 07:15:53;;;;;;;27.2;24.35;;;;;;;12.25;100;94791.3;;;;
2020/06/09 07:16:54;;;;;;;27.2;24.35;;;;;;;12.25;100;94791.3;;;;
2020/06/09 07:17:55;;;;;;;27.2;24.35;;;;;;;12.25;100;94791.3;;;;
2020/06/09 07:18:55;;;;;;;27.2;24.35;;;;;;;12.25;100;94791.3;;;;
2020/06/09 07:19:56;;;;;;;27.2;24.35;;;;;;;12.25;100;94791.3;;;;
2020/06/09 07:20:56;;;;;;;26.4;23.75;;;;;;;12.3;100;94796.37;;;;
2020/06/09 07:21:57;;;;;;;26.4;23.75;;;;;;;12.3;100;94796.37;;;;
2020/06/09 07:22:57;;;;;;;26.4;23.75;;;;;;;12.3;100;94796.37;;;;
2020/06/09 07:23:57;;;;;;;26.4;23.75;;;;;;;12.3;100;94796.37;;;;
2020/06/09 07:24:58;;;;;;;26.4;23.75;;;;;;;12.3;100;94796.37;;;;
2020/06/09 07:26:24;;;;;;;26.4;23.75;;;;;;;12.3;100;94796.37;;;;
2020/06/09 07:28:01;;;;;;;26.4;23.75;;;;;;;12.3;100;94796.37;;;;
2020/06/09 07:29:02;;;;;;;26.4;23.75;;;;;;;12.3;100;94796.37;;;;
2020/06/09 07:30:03;;;;;;;26.4;23.75;;;;;;;12.3;100;94796.37;;;;
2020/06/09 07:31:05;;;;;;;25.6;22.25;;;;;;;12.37;100;94797.38;;;;
2020/06/09 07:32:05;;;;;;;25.6;22.25;;;;;;;12.37;100;94797.38;;;;
2020/06/09 07:33:06;;;;;;;25.6;22.25;;;;;;;12.37;100;94797.38;;;;
2020/06/09 07:34:06;;;;;;;25.6;22.25;;;;;;;12.37;100;94797.38;;;;
2020/06/09 07:35:07;;;;;;;25.6;22.25;;;;;;;12.37;100;94797.38;;;;
2020/06/09 07:36:07;;;;;;;25.6;22.25;;;;;;;12.37;100;94797.38;;;;
2020/06/09 07:37:08;;;;;;;25.6;22.25;;;;;;;12.37;100;94797.38;;;;
2020/06/09 07:38:09;;;;;;;25.6;22.25;;;;;;;12.37;100;94797.38;;;;
2020/06/09 07:39:09;;;;;;;25.6;22.25;;;;;;;12.37;100;94797.38;;;;
2020/06/09 07:40:10;;;;;;;25.6;22.25;;;;;;;12.37;100;94797.38;;;;
2020/06/09 07:41:10;;;;;;;25.6;22.25;;;;;;;12.37;100;94797.38;;;;
2020/06/09 07:42:11;;;;;;;25.05;22.5;;;;;;;12.43;100;94791.85;;;;
2020/06/09 07:43:12;;;;;;;25.05;22.5;;;;;;;12.43;100;94791.85;;;;
2020/06/09 07:44:12;;;;;;;25.05;22.5;;;;;;;12.43;100;94791.85;;;;
2020/06/09 07:45:13;;;;;;;25.05;22.5;;;;;;;12.43;100;94791.85;;;;
2020/06/09 07:46:13;;;;;;;25.05;22.5;;;;;;;12.43;100;94791.85;;;;
2020/06/09 07:47:14;;;;;;;25.05;22.5;;;;;;;12.43;100;94791.85;;;;
2020/06/09 07:48:14;;;;;;;25.05;22.5;;;;;;;12.43;100;94791.85;;;;
2020/06/09 07:49:15;;;;;;;25.05;22.5;;;;;;;12.43;100;94791.85;;;;
2020/06/09 07:50:15;;;;;;;25.05;22.5;;;;;;;12.43;100;94791.85;;;;
2020/06/09 07:51:15;;;;;;;25.05;22.5;;;;;;;12.43;100;94791.85;;;;
2020/06/09 07:52:16;;;;;;;20;18.05;;;;;;;12.56;100;94799.95;;;;
2020/06/09 07:53:16;;;;;;;20;18.05;;;;;;;12.56;100;94799.95;;;;
2020/06/09 07:54:17;;;;;;;20;18.05;;;;;;;12.56;100;94799.95;;;;
2020/06/09 07:55:17;;;;;;;20;18.05;;;;;;;12.56;100;94799.95;;;;
2020/06/09 07:56:17;;;;;;;20;18.05;;;;;;;12.56;100;94799.95;;;;
2020/06/09 07:57:18;;;;;;;20;18.05;;;;;;;12.56;100;94799.95;;;;
2020/06/09 07:58:18;;;;;;;20;18.05;;;;;;;12.56;100;94799.95;;;;
2020/06/09 07:59:19;;;;;;;20;18.05;;;;;;;12.56;100;94799.95;;;;
2020/06/09 08:00:19;;;;;;;20;18.05;;;;;;;12.56;100;94799.95;;;;
2020/06/09 08:01:20;;;;;;;20;18.05;;;;;;;12.56;100;94799.95;;;;